Time;durP1;ratioP1;P1;durP2;ratioP2;P2;SDS_P1;SDS_P2;PMS_P1;PMS_P2;Temp;Humidity;BMP_temperature;BMP_pressure;BME280_temperature;BME280_humidity;BME280_pressure;Samples;Min_cycle;Max_cycle;Signal;HPM_P1;HPM_P2
2021/12/10 00:00:16;;;;;;;;;0.25;0.25;;;;;8.48;68.52;99098.13;5019622;28;45237;-67
2021/12/10 00:02:46;;;;;;;;;0.00;0.00;;;;;8.44;68.71;99087.75;5016668;28;45331;-67
2021/12/10 00:05:14;;;;;;;;;0.00;0.00;;;;;8.41;69.14;99074.56;5021415;28;45493;-67
2021/12/10 00:07:41;;;;;;;;;0.25;0.25;;;;;8.45;69.05;99062.88;5022709;28;45362;-67
2021/12/10 00:10:10;;;;;;;;;0.00;0.00;;;;;8.49;68.96;99043.16;5022766;28;45378;-67
2021/12/10 00:12:49;;;;;;;;;0.00;0.00;;;;;8.48;69.00;99026.34;5021725;28;45591;-67
2021/12/10 00:15:17;;;;;;;;;0.00;0.00;;;;;8.48;68.79;99015.69;5022677;28;45391;-67
2021/12/10 00:17:42;;;;;;;;;0.50;0.00;;;;;8.49;68.77;99008.59;5022564;28;45898;-67
2021/12/10 00:20:09;;;;;;;;;0.00;0.00;;;;;8.45;69.00;98986.63;5022505;28;45270;-67
2021/12/10 00:22:41;;;;;;;;;0.00;0.00;;;;;8.50;69.04;98986.38;5021728;28;45302;-67
2021/12/10 00:25:24;;;;;;;;;0.00;0.00;;;;;8.49;69.00;98972.22;5021167;28;45370;-67
2021/12/10 00:27:52;;;;;;;;;0.25;0.00;;;;;8.46;68.92;98961.75;5021195;28;48075;-67
2021/12/10 00:30:26;;;;;;;;;0.00;0.00;;;;;8.45;68.87;98932.56;5022461;28;45526;-67
2021/12/10 00:33:02;;;;;;;;;0.00;0.00;;;;;8.37;69.13;98908.16;5022629;28;45311;-67
2021/12/10 00:35:31;;;;;;;;;2.00;0.00;;;;;8.40;69.10;98900.00;5021326;28;45330;-67
2021/12/10 00:37:58;;;;;;;;;0.00;0.00;;;;;8.37;69.05;98897.50;5022191;28;46207;-67
2021/12/10 00:40:25;;;;;;;;;1.00;0.00;;;;;8.36;68.89;98883.38;5021535;28;45410;-67
2021/12/10 00:42:52;;;;;;;;;0.00;0.00;;;;;8.39;69.36;98891.19;5037435;28;45338;-67
2021/12/10 00:45:18;;;;;;;;;1.00;1.00;;;;;8.36;69.07;98891.34;5020950;28;45831;-67
2021/12/10 00:47:45;;;;;;;;;0.50;0.00;;;;;8.41;69.27;98904.41;5022303;28;45216;-67
2021/12/10 00:50:15;;;;;;;;;0.25;0.25;;;;;8.44;69.30;98896.31;5037222;28;45279;-67
2021/12/10 00:52:42;;;;;;;;;0.00;0.00;;;;;8.45;69.21;98896.22;5022241;28;45439;-67
2021/12/10 00:55:09;;;;;;;;;0.50;0.50;;;;;8.47;69.34;98881.03;5021742;28;45485;-67
2021/12/10 00:57:34;;;;;;;;;1.50;0.50;;;;;8.47;69.10;98880.16;5020437;28;47364;-67
2021/12/10 01:00:00;;;;;;;;;0.00;0.00;;;;;8.45;69.43;98861.66;5022205;28;45380;-67
2021/12/10 01:02:25;;;;;;;;;0.00;0.00;;;;;8.47;69.28;98853.56;5022338;28;45338;-67
2021/12/10 01:04:57;;;;;;;;;1.00;1.00;;;;;8.48;69.65;98850.81;5021140;28;45601;-67
2021/12/10 01:07:28;;;;;;;;;0.25;0.25;;;;;8.45;69.62;98821.78;5021851;28;45402;-67
2021/12/10 01:09:56;;;;;;;;;0.00;0.00;;;;;8.48;69.03;98810.09;5021866;28;45613;-67
2021/12/10 01:12:48;;;;;;;;;0.00;0.00;;;;;8.42;68.92;98808.59;5021827;28;45520;-67
2021/12/10 01:28:46;;;;;;;;;0.00;0.00;;;;;8.15;69.72;98744.50;5021425;28;45563;-67
2021/12/10 01:31:11;;;;;;;;;0.00;0.00;;;;;8.26;69.65;98760.72;5020262;28;45291;-67
2021/12/10 01:33:37;;;;;;;;;0.00;0.00;;;;;8.30;69.53;98766.72;5020779;28;45474;-67
2021/12/10 01:36:07;;;;;;;;;0.00;0.00;;;;;8.26;69.76;98754.56;5021599;28;45330;-67
2021/12/10 01:38:35;;;;;;;;;0.00;0.00;;;;;8.22;69.69;98759.19;5021492;28;46718;-67
2021/12/10 01:41:02;;;;;;;;;1.00;0.00;;;;;8.26;69.48;98750.09;5013357;28;45495;-67
2021/12/10 01:43:32;;;;;;;;;0.00;0.00;;;;;8.27;69.71;98733.22;5021379;28;45549;-67
2021/12/10 01:46:06;;;;;;;;;0.00;0.00;;;;;8.32;69.67;98730.31;5021461;28;45441;-67
2021/12/10 01:48:42;;;;;;;;;0.00;0.00;;;;;8.38;69.60;98734.41;5020557;28;46011;-67
2021/12/10 01:51:11;;;;;;;;;0.00;0.00;;;;;8.33;69.64;98726.69;5021036;28;45685;-67
2021/12/10 01:53:40;;;;;;;;;0.00;0.00;;;;;8.35;69.77;98724.78;5021305;28;45422;-67
2021/12/10 01:56:11;;;;;;;;;0.75;0.00;;;;;8.34;69.87;98710.66;5020951;28;45477;-67
2021/12/10 01:58:38;;;;;;;;;0.00;0.00;;;;;8.44;69.73;98711.03;5021326;28;46067;-67
2021/12/10 02:01:17;;;;;;;;;0.00;0.00;;;;;8.44;69.45;98699.53;5021196;28;45614;-67
2021/12/10 02:03:46;;;;;;;;;0.00;0.00;;;;;8.43;69.58;98692.50;5020688;28;45279;-67
2021/12/10 02:06:12;;;;;;;;;1.00;0.00;;;;;8.46;69.81;98687.00;5020575;28;45315;-67
2021/12/10 02:08:39;;;;;;;;;0.00;0.00;;;;;8.55;69.60;98678.50;5036287;28;45980;-67
2021/12/10 02:11:05;;;;;;;;;0.00;0.00;;;;;8.55;69.43;98677.66;5020772;28;45317;-67
2021/12/10 02:13:31;;;;;;;;;0.00;0.00;;;;;8.53;69.55;98667.94;5021285;28;45303;-67
2021/12/10 02:15:57;;;;;;;;;0.00;0.00;;;;;8.52;69.70;98668.91;5020963;28;45397;-67
2021/12/10 02:18:22;;;;;;;;;0.00;0.00;;;;;8.50;69.28;98668.16;5020638;28;45414;-67
2021/12/10 02:21:00;;;;;;;;;0.00;0.00;;;;;8.62;69.24;98671.03;5020418;28;45302;-67
2021/12/10 02:23:25;;;;;;;;;0.00;0.00;;;;;8.55;69.65;98664.34;5021017;28;45640;-67
2021/12/10 02:25:51;;;;;;;;;0.00;0.00;;;;;8.56;69.55;98650.13;5019691;28;45454;-67
2021/12/10 02:28:17;;;;;;;;;0.00;0.00;;;;;8.65;69.50;98655.78;5020708;28;45310;-67
2021/12/10 02:30:43;;;;;;;;;0.00;0.00;;;;;8.69;69.55;98661.78;5020811;28;45573;-67
2021/12/10 02:33:09;;;;;;;;;0.00;0.00;;;;;8.69;69.21;98654.63;5020127;28;45372;-67
2021/12/10 02:35:35;;;;;;;;;0.00;0.00;;;;;8.77;69.37;98655.97;5020441;28;45446;-67
2021/12/10 02:38:01;;;;;;;;;0.00;0.00;;;;;8.72;69.23;98640.31;5020607;28;45474;-67
2021/12/10 02:40:29;;;;;;;;;0.25;0.00;;;;;8.79;69.73;98652.31;5020346;28;45391;-67
2021/12/10 02:42:58;;;;;;;;;0.00;0.00;;;;;8.83;69.35;98645.00;5020734;28;45268;-67
2021/12/10 02:45:25;;;;;;;;;0.00;0.00;;;;;8.79;69.06;98627.50;5020511;28;45657;-67
2021/12/10 02:47:52;;;;;;;;;0.00;0.00;;;;;8.78;69.18;98607.16;5020302;28;45397;-67
2021/12/10 02:50:21;;;;;;;;;0.00;0.00;;;;;8.72;69.05;98608.41;5020028;28;45497;-67
2021/12/10 02:52:47;;;;;;;;;0.00;0.00;;;;;8.76;69.49;98631.19;5020173;28;45404;-67
2021/12/10 02:55:15;;;;;;;;;0.00;0.00;;;;;8.78;69.29;98631.09;5020090;28;45241;-67
2021/12/10 02:57:43;;;;;;;;;0.00;0.00;;;;;8.76;69.03;98609.91;5035285;28;46164;-67
2021/12/10 03:00:13;;;;;;;;;0.25;0.00;;;;;8.85;69.06;98612.06;5020333;28;45532;-67
2021/12/10 03:02:38;;;;;;;;;1.00;0.00;;;;;8.83;69.07;98599.78;5020186;28;45263;-67
2021/12/10 03:05:07;;;;;;;;;0.00;0.00;;;;;8.85;69.10;98601.41;5019144;28;45411;-67
2021/12/10 03:07:33;;;;;;;;;0.00;0.00;;;;;8.87;69.26;98599.50;5020352;28;46404;-67
2021/12/10 03:09:59;;;;;;;;;0.00;0.00;;;;;8.87;69.56;98602.16;5019921;28;45236;-67
2021/12/10 03:12:24;;;;;;;;;0.00;0.00;;;;;8.85;68.98;98588.09;5019360;28;45288;-67
2021/12/10 03:14:54;;;;;;;;;0.00;0.00;;;;;8.86;69.17;98576.50;5035366;28;45239;-67
2021/12/10 03:17:26;;;;;;;;;0.00;0.00;;;;;8.91;69.04;98586.88;5019699;28;46191;-67
2021/12/10 03:19:53;;;;;;;;;0.00;0.00;;;;;8.94;69.41;98596.44;5034959;28;45639;-67
2021/12/10 03:22:19;;;;;;;;;2.00;0.00;;;;;8.86;69.52;98595.13;5020135;28;45390;-67
2021/12/10 03:24:44;;;;;;;;;0.50;0.50;;;;;8.96;69.29;98598.09;5020095;28;45354;-68
2021/12/10 03:27:11;;;;;;;;;0.00;0.00;;;;;8.98;69.85;98598.84;5019679;28;45411;-67
2021/12/10 03:29:39;;;;;;;;;0.00;0.00;;;;;9.01;69.23;98593.34;5035128;28;45535;-67
2021/12/10 03:32:10;;;;;;;;;0.00;0.00;;;;;9.04;69.79;98597.63;5019848;28;45423;-67
2021/12/10 03:34:36;;;;;;;;;0.75;0.00;;;;;9.02;70.07;98594.19;5018000;28;45429;-67
2021/12/10 03:37:03;;;;;;;;;0.00;0.00;;;;;9.09;69.39;98596.41;5017279;28;46777;-67
2021/12/10 03:39:29;;;;;;;;;0.00;0.00;;;;;9.15;69.38;98612.94;5019741;28;45510;-67
2021/12/10 03:41:58;;;;;;;;;1.00;0.00;;;;;9.14;69.74;98600.56;5019503;28;45297;-67
2021/12/10 03:44:24;;;;;;;;;0.00;0.00;;;;;9.13;69.53;98599.72;5035165;28;45617;-67
2021/12/10 03:46:50;;;;;;;;;0.00;0.00;;;;;9.20;69.88;98600.22;5019615;28;45430;-67
2021/12/10 03:49:16;;;;;;;;;1.00;0.00;;;;;9.23;69.99;98608.84;5018131;28;45492;-67
2021/12/10 03:51:41;;;;;;;;;0.00;0.00;;;;;9.19;70.19;98593.19;5018550;28;45343;-67
2021/12/10 03:54:07;;;;;;;;;0.00;0.00;;;;;9.26;70.43;98605.16;5019132;28;45474;-67
2021/12/10 03:56:36;;;;;;;;;0.00;0.00;;;;;9.29;70.73;98610.31;5018653;28;45504;-67
2021/12/10 03:59:07;;;;;;;;;1.00;0.00;;;;;9.33;70.79;98606.50;5019192;28;45335;-67
2021/12/10 04:01:36;;;;;;;;;0.00;0.00;;;;;9.27;70.86;98588.22;5018963;28;45266;-67
2021/12/10 04:04:07;;;;;;;;;0.50;0.00;;;;;9.39;71.27;98608.78;5018221;28;45756;-67
2021/12/10 04:06:33;;;;;;;;;0.00;0.00;;;;;9.40;71.58;98601.66;5018457;28;46169;-67
2021/12/10 04:09:00;;;;;;;;;1.00;1.00;;;;;9.42;71.98;98613.94;5006769;28;45182;-67
2021/12/10 04:11:26;;;;;;;;;0.00;0.00;;;;;9.46;71.39;98619.91;5008416;28;45301;-67
2021/12/10 04:13:53;;;;;;;;;0.00;0.00;;;;;9.49;72.29;98618.84;5014963;28;45457;-67
2021/12/10 04:16:22;;;;;;;;;0.50;0.00;;;;;9.43;72.37;98607.63;5019539;28;45323;-67
2021/12/10 04:18:49;;;;;;;;;1.00;1.00;;;;;9.51;71.91;98620.50;5018876;28;45335;-67
2021/12/10 04:21:16;;;;;;;;;1.00;1.00;;;;;9.55;72.23;98616.66;5019024;28;45291;-67
2021/12/10 04:23:41;;;;;;;;;3.25;1.00;;;;;9.58;72.11;98605.84;5018488;28;45407;-67
2021/12/10 04:26:09;;;;;;;;;1.00;0.00;;;;;9.64;72.27;98601.94;5018477;28;46179;-67
2021/12/10 04:28:34;;;;;;;;;2.00;1.00;;;;;9.66;72.31;98610.69;5018856;28;45402;-67
2021/12/10 04:31:00;;;;;;;;;1.75;1.00;;;;;9.70;71.89;98620.19;5018685;28;45335;-67
2021/12/10 04:33:26;;;;;;;;;1.25;1.00;;;;;9.72;72.14;98614.75;5017896;28;45554;-67
2021/12/10 04:35:55;;;;;;;;;1.00;1.00;;;;;9.73;71.79;98605.84;5017804;28;47002;-67
2021/12/10 04:38:22;;;;;;;;;3.75;1.00;;;;;9.75;71.81;98610.09;5018603;28;45352;-67
2021/12/10 04:40:50;;;;;;;;;1.50;1.50;;;;;9.80;71.67;98623.97;5018876;28;45336;-67
2021/12/10 04:43:19;;;;;;;;;1.50;0.00;;;;;9.85;72.27;98620.19;5018736;28;45500;-67
2021/12/10 04:45:46;;;;;;;;;1.00;1.00;;;;;9.88;71.79;98617.34;5018275;28;46290;-67
2021/12/10 04:48:11;;;;;;;;;1.25;1.25;;;;;9.81;71.71;98612.38;5019087;28;45216;-67
2021/12/10 04:50:37;;;;;;;;;2.00;1.75;;;;;9.93;72.04;98633.88;5021657;28;45229;-67
2021/12/10 04:53:06;;;;;;;;;1.25;0.75;;;;;9.95;71.80;98626.66;5022234;28;45171;-67
2021/12/10 04:55:32;;;;;;;;;3.00;2.75;;;;;9.99;71.42;98634.34;5021204;28;46449;-67
2021/12/10 04:57:57;;;;;;;;;2.00;2.00;;;;;10.05;71.09;98626.91;5021749;28;45354;-67
2021/12/10 05:00:31;;;;;;;;;1.00;1.00;;;;;9.99;71.44;98617.50;5021657;28;45336;-67
2021/12/10 05:03:00;;;;;;;;;1.25;1.25;;;;;10.06;71.52;98637.47;5020901;28;45416;-67
2021/12/10 05:05:26;;;;;;;;;3.25;2.00;;;;;10.04;71.55;98642.06;5021092;28;45480;-67
2021/12/10 05:07:51;;;;;;;;;4.00;2.50;;;;;10.07;71.59;98635.66;5022114;28;45555;-67
2021/12/10 05:10:18;;;;;;;;;4.00;2.25;;;;;10.07;70.99;98647.16;5021300;28;45206;-67
2021/12/10 05:12:44;;;;;;;;;3.50;2.00;;;;;10.06;71.03;98644.63;5021935;28;45196;-67
2021/12/10 05:15:14;;;;;;;;;3.75;1.00;;;;;10.11;70.65;98646.03;5021901;28;46160;-67
2021/12/10 05:17:40;;;;;;;;;1.25;1.00;;;;;10.06;70.69;98639.31;5021794;28;45367;-67
2021/12/10 05:20:16;;;;;;;;;3.75;2.75;;;;;10.17;70.23;98660.78;5021483;28;45310;-67
2021/12/10 05:22:44;;;;;;;;;4.00;3.00;;;;;10.16;70.18;98656.41;5021799;28;45334;-67
2021/12/10 05:25:10;;;;;;;;;3.75;2.50;;;;;10.18;70.31;98674.00;5020510;28;45692;-67
2021/12/10 05:27:36;;;;;;;;;2.00;2.00;;;;;10.12;70.42;98663.75;5020825;28;45443;-67
2021/12/10 05:30:05;;;;;;;;;3.75;2.00;;;;;10.15;69.91;98670.69;5021104;28;45475;-67
2021/12/10 05:32:32;;;;;;;;;4.25;1.00;;;;;10.16;70.14;98685.75;5019286;28;45880;-67
2021/12/10 05:34:58;;;;;;;;;2.00;1.00;;;;;10.13;69.67;98699.25;5020637;28;46232;-67
2021/12/10 05:37:23;;;;;;;;;3.00;1.50;;;;;10.10;70.23;98694.97;5019600;28;45863;-67
2021/12/10 05:39:49;;;;;;;;;1.00;1.00;;;;;10.13;70.44;98696.59;5020380;28;45449;-67
2021/12/10 05:42:15;;;;;;;;;2.00;2.00;;;;;10.11;70.40;98701.19;5020612;28;45485;-67
2021/12/10 05:44:41;;;;;;;;;2.00;2.00;;;;;10.14;70.29;98700.97;5020598;28;45565;-67
2021/12/10 05:47:06;;;;;;;;;1.50;1.50;;;;;10.17;70.20;98712.31;5020990;28;45444;-67
2021/12/10 05:49:32;;;;;;;;;1.50;0.00;;;;;10.12;70.22;98706.41;5021039;28;45523;-67
2021/12/10 05:51:58;;;;;;;;;2.25;2.00;;;;;10.18;70.31;98723.81;5020570;28;45467;-67
2021/12/10 05:54:23;;;;;;;;;2.00;2.00;;;;;10.16;70.14;98728.41;5020749;28;45532;-67
2021/12/10 05:56:49;;;;;;;;;1.00;1.00;;;;;10.15;70.04;98719.53;5020724;28;45326;-67
2021/12/10 05:59:14;;;;;;;;;2.00;0.25;;;;;10.22;70.17;98728.00;5019768;28;45336;-67
2021/12/10 06:01:40;;;;;;;;;3.25;2.25;;;;;10.21;69.95;98736.97;5020471;28;45279;-67
2021/12/10 06:04:05;;;;;;;;;3.50;2.00;;;;;10.26;69.40;98734.00;5019469;28;45913;-67
2021/12/10 06:06:33;;;;;;;;;1.50;1.00;;;;;10.29;70.04;98742.66;5019187;28;45295;-67
2021/12/10 06:09:02;;;;;;;;;3.25;1.75;;;;;10.29;69.78;98744.47;5020409;28;45311;-67
2021/12/10 06:11:27;;;;;;;;;1.75;1.00;;;;;10.29;69.54;98742.66;5035671;28;45431;-67
2021/12/10 06:13:53;;;;;;;;;3.75;2.00;;;;;10.31;69.37;98754.09;5020084;28;45350;-67
2021/12/10 06:16:19;;;;;;;;;1.75;1.75;;;;;10.33;69.42;98765.53;5020958;28;45437;-67
2021/12/10 06:18:45;;;;;;;;;1.25;0.50;;;;;10.37;69.04;98775.09;5020217;28;45403;-67
2021/12/10 06:21:12;;;;;;;;;2.00;1.00;;;;;10.36;68.80;98764.50;5020151;28;45324;-67
2021/12/10 06:23:38;;;;;;;;;1.75;1.75;;;;;10.36;69.18;98772.50;5019239;28;45395;-67
2021/12/10 06:26:04;;;;;;;;;0.00;0.00;;;;;10.36;69.61;98778.69;5019545;28;45778;-67
2021/12/10 06:28:31;;;;;;;;;2.00;2.00;;;;;10.37;69.31;98782.22;5020520;28;45375;-67
2021/12/10 06:30:57;;;;;;;;;3.25;2.00;;;;;10.31;69.18;98772.75;5019270;28;45316;-67
2021/12/10 06:33:27;;;;;;;;;1.75;0.25;;;;;10.36;69.14;98796.50;5019247;28;45949;-67
2021/12/10 06:35:54;;;;;;;;;1.00;1.00;;;;;10.35;69.13;98792.97;5019742;28;45472;-67
2021/12/10 06:38:21;;;;;;;;;1.00;1.00;;;;;10.35;69.55;98800.97;5019218;28;45392;-67
2021/12/10 06:40:48;;;;;;;;;2.00;1.00;;;;;10.33;69.73;98799.38;5019691;28;45319;-67
2021/12/10 06:43:14;;;;;;;;;1.00;1.00;;;;;10.36;69.32;98801.84;5020180;28;45462;-67
2021/12/10 06:45:41;;;;;;;;;4.25;1.75;;;;;10.38;69.75;98811.44;5020133;28;45392;-67
2021/12/10 06:48:08;;;;;;;;;2.00;2.00;;;;;10.31;69.50;98835.91;5019527;28;45460;-67
2021/12/10 06:50:38;;;;;;;;;3.00;1.00;;;;;10.31;69.52;98828.75;5019011;28;45474;-67
2021/12/10 06:53:04;;;;;;;;;3.00;1.00;;;;;10.33;69.77;98844.72;5017511;28;46217;-67
2021/12/10 06:55:31;;;;;;;;;2.00;1.75;;;;;10.33;69.45;98844.72;5018835;28;45402;-67
2021/12/10 06:57:57;;;;;;;;;1.00;1.00;;;;;10.31;69.15;98849.25;5019445;28;45442;-66
2021/12/10 07:00:34;;;;;;;;;2.25;2.00;;;;;10.27;69.34;98850.38;5019506;28;45225;-66
2021/12/10 07:02:59;;;;;;;;;1.75;1.00;;;;;10.22;69.29;98858.66;5018844;28;45278;-67
2021/12/10 07:05:26;;;;;;;;;1.00;1.00;;;;;10.24;69.28;98861.22;5017243;28;45339;-67
2021/12/10 07:07:51;;;;;;;;;0.25;0.25;;;;;10.21;69.20;98880.94;5007846;28;45284;-67
2021/12/10 07:10:17;;;;;;;;;1.50;0.00;;;;;10.15;69.16;98868.81;5017138;28;45269;-67
2021/12/10 07:12:43;;;;;;;;;0.00;0.00;;;;;10.12;69.46;98873.50;5008724;28;46120;-70
2021/12/10 07:15:13;;;;;;;;;2.00;0.25;;;;;10.10;68.86;98883.41;5010332;28;45399;-72
2021/12/10 07:17:42;;;;;;;;;7.00;0.25;;;;;10.09;69.00;98893.22;5025407;28;45534;-72
2021/12/10 07:20:09;;;;;;;;;1.00;0.25;;;;;10.05;69.10;98899.66;5022227;28;45501;-73
2021/12/10 07:22:35;;;;;;;;;1.00;1.00;;;;;10.11;68.75;98914.44;5023124;28;47107;-72
2021/12/10 07:25:01;;;;;;;;;0.00;0.00;;;;;10.07;68.99;98913.75;5009461;28;45471;-72
2021/12/10 07:27:26;;;;;;;;;1.00;1.00;;;;;9.87;68.57;98892.75;5009339;28;46860;-72
2021/12/10 07:29:51;;;;;;;;;0.50;0.00;;;;;10.05;69.05;98942.31;5007165;28;45437;-69
2021/12/10 07:32:17;;;;;;;;;1.00;1.00;;;;;9.92;68.95;98912.00;5009677;28;45660;-72
2021/12/10 07:34:42;;;;;;;;;0.75;0.75;;;;;10.04;69.26;98937.06;5005104;28;45295;-72
2021/12/10 07:37:10;;;;;;;;;0.50;0.50;;;;;9.90;68.93;98916.56;5005155;28;45341;-73
2021/12/10 07:39:37;;;;;;;;;0.50;0.50;;;;;10.01;69.35;98943.47;5005581;28;45482;-71
2021/12/10 07:42:04;;;;;;;;;1.00;0.75;;;;;10.00;68.74;98960.38;5009677;28;46023;-71
2021/12/10 07:44:29;;;;;;;;;1.00;1.00;;;;;10.04;69.07;98977.06;5022412;28;46121;-71
2021/12/10 07:46:57;;;;;;;;;1.00;1.00;;;;;10.04;69.34;98977.06;5010135;28;45594;-72
2021/12/10 07:49:29;;;;;;;;;0.50;0.00;;;;;9.85;69.04;98959.47;5024217;28;45707;-71
2021/12/10 07:51:59;;;;;;;;;2.50;0.75;;;;;9.90;68.94;98977.88;5010720;28;46122;-71
2021/12/10 07:54:27;;;;;;;;;1.00;0.00;;;;;9.85;69.27;98971.94;5023230;28;45360;-72
2021/12/10 07:56:53;;;;;;;;;0.00;0.00;;;;;10.00;69.20;99003.88;5026305;28;45560;-71
2021/12/10 07:59:19;;;;;;;;;1.00;0.25;;;;;10.05;68.41;99013.44;5029219;28;45508;-74
2021/12/10 08:01:45;;;;;;;;;0.00;0.00;;;;;9.99;68.39;99001.34;5019076;28;45522;-75
2021/12/10 08:04:10;;;;;;;;;1.00;1.00;;;;;9.93;68.55;99015.84;5012878;28;45679;-75
2021/12/10 08:06:36;;;;;;;;;0.25;0.00;;;;;9.94;68.34;99014.03;5018420;28;45286;-74
2021/12/10 08:09:07;;;;;;;;;0.75;0.00;;;;;9.93;68.24;99034.50;5015496;28;45601;-69
2021/12/10 08:11:33;;;;;;;;;0.00;0.00;;;;;9.91;68.23;99033.75;5014070;28;45883;-72
2021/12/10 08:13:59;;;;;;;;;1.25;0.00;;;;;9.91;68.71;99039.09;5014498;28;45606;-71
2021/12/10 08:16:25;;;;;;;;;1.00;1.00;;;;;9.96;68.09;99045.00;5013668;28;45451;-72
2021/12/10 08:18:52;;;;;;;;;1.00;0.00;;;;;9.93;68.12;99063.84;5030896;28;45682;-70
2021/12/10 08:21:18;;;;;;;;;0.00;0.00;;;;;9.91;67.41;99065.72;5017914;28;45370;-72
2021/12/10 08:23:44;;;;;;;;;1.00;0.75;;;;;9.91;67.50;99064.88;5019576;28;45383;-72
2021/12/10 08:26:12;;;;;;;;;1.25;0.00;;;;;9.88;67.19;99081.03;5021531;28;45539;-72
2021/12/10 08:28:38;;;;;;;;;0.00;0.00;;;;;9.83;67.21;99081.28;5021521;28;45568;-72
2021/12/10 08:31:05;;;;;;;;;0.00;0.00;;;;;9.77;66.75;99087.84;5022108;28;45529;-72
2021/12/10 08:33:31;;;;;;;;;0.00;0.00;;;;;9.82;66.59;99092.88;5021378;28;45347;-67
2021/12/10 08:36:01;;;;;;;;;0.00;0.00;;;;;9.83;66.70;99099.94;5021919;28;45367;-69
2021/12/10 08:38:28;;;;;;;;;0.00;0.00;;;;;9.82;66.49;99116.88;5020187;28;45453;-69
2021/12/10 08:41:04;;;;;;;;;1.50;0.75;;;;;9.81;65.99;99116.03;5021429;28;45403;-69
2021/12/10 08:43:30;;;;;;;;;1.00;0.00;;;;;9.83;66.52;99115.94;5018174;28;45629;-69
2021/12/10 08:45:56;;;;;;;;;0.00;0.00;;;;;9.81;65.43;99116.03;5020568;28;45311;-67
2021/12/10 08:48:24;;;;;;;;;1.00;0.50;;;;;9.78;65.46;99124.19;5020397;28;45450;-67
2021/12/10 08:50:51;;;;;;;;;0.00;0.00;;;;;9.74;65.48;99124.41;5021413;28;46180;-68
2021/12/10 08:53:17;;;;;;;;;0.00;0.00;;;;;9.76;65.96;99144.72;5021685;28;45498;-67
2021/12/10 08:55:46;;;;;;;;;0.00;0.00;;;;;9.77;65.82;99143.81;5020380;28;45320;-68
2021/12/10 08:58:12;;;;;;;;;2.00;0.00;;;;;9.72;65.67;99147.63;5018958;28;45496;-68
2021/12/10 09:00:40;;;;;;;;;0.00;0.00;;;;;9.70;65.59;99153.03;5021082;28;46211;-68
2021/12/10 09:03:07;;;;;;;;;0.75;0.75;;;;;9.66;65.58;99156.84;5021563;28;45568;-68
2021/12/10 09:05:34;;;;;;;;;1.00;0.00;;;;;9.64;65.67;99164.06;5020598;28;45315;-73
2021/12/10 09:07:59;;;;;;;;;0.00;0.00;;;;;9.60;65.50;99171.31;5019607;28;45513;-67
2021/12/10 09:10:30;;;;;;;;;1.50;0.50;;;;;9.59;65.32;99168.78;5020094;28;46336;-67
2021/12/10 09:12:55;;;;;;;;;0.00;0.00;;;;;9.59;65.30;99166.97;5021067;28;45641;-67
2021/12/10 09:15:23;;;;;;;;;1.50;0.00;;;;;9.62;65.39;99182.78;5021750;28;45433;-67
2021/12/10 09:17:50;;;;;;;;;1.25;0.50;;;;;9.59;65.66;99184.75;5020649;28;45381;-67
2021/12/10 09:20:30;;;;;;;;;0.00;0.00;;;;;9.61;65.40;99188.19;5021068;28;47239;-67
2021/12/10 09:22:56;;;;;;;;;1.50;1.00;;;;;9.55;65.17;99196.50;5021290;28;45404;-67
2021/12/10 09:25:22;;;;;;;;;0.25;0.25;;;;;9.56;65.97;99198.22;5036462;28;45417;-69
2021/12/10 09:27:48;;;;;;;;;0.25;0.25;;;;;9.58;65.95;99217.66;5020315;28;45558;-67
2021/12/10 09:30:16;;;;;;;;;1.00;1.00;;;;;9.60;65.42;99207.78;5020864;28;45433;-68
2021/12/10 09:32:44;;;;;;;;;0.00;0.00;;;;;9.56;65.92;99207.06;5021187;28;45343;-67
2021/12/10 09:35:12;;;;;;;;;1.75;1.00;;;;;9.62;65.73;99212.09;5020602;28;45461;-67
2021/12/10 09:37:40;;;;;;;;;3.00;0.00;;;;;9.66;65.44;99228.78;5020652;28;45466;-68
2021/12/10 09:40:12;;;;;;;;;0.25;0.25;;;;;9.63;65.38;99218.28;5020764;28;46180;-67
2021/12/10 09:42:38;;;;;;;;;0.25;0.25;;;;;9.68;65.30;99226.03;5020000;28;45295;-67
2021/12/10 09:45:07;;;;;;;;;1.75;1.25;;;;;9.71;65.55;99240.03;5017337;28;45550;-67
2021/12/10 09:47:33;;;;;;;;;2.00;2.00;;;;;9.70;65.23;99242.78;5018423;28;45924;-67
2021/12/10 09:49:59;;;;;;;;;2.75;2.00;;;;;9.68;65.37;99242.88;5019984;28;46137;-67
2021/12/10 09:52:27;;;;;;;;;4.00;0.75;;;;;9.72;65.40;99260.44;5020754;28;45563;-67
2021/12/10 09:54:53;;;;;;;;;2.00;1.00;;;;;9.73;64.93;99259.47;5028526;28;47301;-67
2021/12/10 09:57:25;;;;;;;;;1.00;1.00;;;;;9.72;65.24;99252.44;5008195;28;45493;-68
2021/12/10 09:59:52;;;;;;;;;1.50;1.50;;;;;9.72;65.09;99259.53;5013771;28;48399;-67
2021/12/10 10:02:21;;;;;;;;;2.25;2.00;;;;;9.70;64.84;99261.44;5008894;28;45782;-68
2021/12/10 10:04:49;;;;;;;;;1.00;1.00;;;;;9.70;64.80;99256.09;5009775;28;45503;-67
2021/12/10 10:07:23;;;;;;;;;2.50;2.00;;;;;9.72;64.83;99271.09;5012866;28;45772;-67
2021/12/10 10:09:52;;;;;;;;;2.25;1.75;;;;;9.73;65.08;99275.47;5019065;28;45836;-67
2021/12/10 10:12:28;;;;;;;;;3.00;0.50;;;;;9.70;65.33;99267.63;5016671;28;45786;-67
2021/12/10 10:14:54;;;;;;;;;2.00;2.00;;;;;9.75;64.52;99275.38;5020671;28;45480;-67
2021/12/10 10:17:22;;;;;;;;;2.00;2.00;;;;;9.78;65.22;99283.22;5018154;28;45544;-67
2021/12/10 10:19:49;;;;;;;;;2.50;1.00;;;;;9.75;65.10;99286.88;5015563;28;46555;-67
2021/12/10 10:22:18;;;;;;;;;5.00;1.00;;;;;9.79;64.94;99306.28;5019289;28;45456;-67
2021/12/10 10:24:44;;;;;;;;;2.50;2.00;;;;;9.70;64.35;99312.06;5013755;28;45393;-67
2021/12/10 10:27:14;;;;;;;;;2.75;2.00;;;;;9.74;63.77;99311.84;5011066;28;45688;-67
2021/12/10 10:29:51;;;;;;;;;2.25;1.00;;;;;9.75;64.25;99310.88;5007533;28;46343;-68
2021/12/10 10:32:20;;;;;;;;;3.00;0.75;;;;;9.78;64.73;99301.88;5009737;28;45332;-68
2021/12/10 10:34:51;;;;;;;;;1.00;1.00;;;;;9.82;64.45;99308.75;5025873;28;45335;-68
2021/12/10 10:37:18;;;;;;;;;2.00;1.00;;;;;9.82;64.09;99314.09;5009188;28;45525;-68
2021/12/10 10:39:44;;;;;;;;;1.50;1.50;;;;;9.89;63.72;99334.16;5012727;28;46682;-68
2021/12/10 10:42:20;;;;;;;;;3.25;1.00;;;;;9.89;63.39;99328.84;5008458;28;45746;-68
2021/12/10 10:44:47;;;;;;;;;5.00;2.00;;;;;9.91;63.04;99329.59;5010973;28;45479;-68
2021/12/10 10:47:12;;;;;;;;;4.00;2.00;;;;;9.94;62.67;99324.13;5007559;28;45800;-68
2021/12/10 10:49:41;;;;;;;;;1.50;1.00;;;;;9.97;63.43;99344.41;5010328;28;46012;-68
2021/12/10 10:52:29;;;;;;;;;1.75;1.00;;;;;10.00;63.38;99345.09;5006871;28;45631;-68
2021/12/10 10:54:59;;;;;;;;;1.00;1.00;;;;;9.99;63.18;99340.72;5013139;28;45807;-68
2021/12/10 10:57:30;;;;;;;;;1.00;1.00;;;;;9.98;62.82;99347.00;5015106;28;45561;-68
2021/12/10 11:00:10;;;;;;;;;1.00;1.00;;;;;10.00;62.74;99347.78;5016970;28;46248;-68
2021/12/10 11:02:50;;;;;;;;;1.00;1.00;;;;;9.99;62.64;99362.06;5016912;28;45527;-68
2021/12/10 11:05:16;;;;;;;;;2.75;1.00;;;;;9.91;62.07;99340.28;5015755;28;45601;-68
2021/12/10 11:07:54;;;;;;;;;1.00;1.00;;;;;9.97;62.14;99350.63;5014423;28;45546;-68
2021/12/10 11:10:42;;;;;;;;;1.00;1.00;;;;;9.99;61.84;99362.06;5015488;28;45563;-68
2021/12/10 11:13:19;;;;;;;;;0.50;0.50;;;;;10.00;61.50;99360.25;5015081;28;45620;-68
2021/12/10 11:16:07;;;;;;;;;1.50;0.25;;;;;10.01;61.92;99391.31;5016994;28;45813;-68
2021/12/10 11:18:53;;;;;;;;;7.50;1.00;;;;;10.01;61.04;99381.50;5016286;28;45528;-68
2021/12/10 11:21:49;;;;;;;;;1.25;1.25;;;;;10.00;61.16;99394.91;5015096;28;46548;-67
2021/12/10 11:24:23;;;;;;;;;1.00;1.00;;;;;10.00;60.70;99389.56;5014151;28;47676;-67
2021/12/10 11:27:04;;;;;;;;;1.00;1.00;;;;;10.00;60.26;99390.41;5032924;28;45418;-66
2021/12/10 11:29:35;;;;;;;;;2.00;1.00;;;;;10.00;60.27;99397.56;5013344;28;45241;-66
2021/12/10 11:32:07;;;;;;;;;1.00;0.75;;;;;10.00;60.92;99393.09;5018256;28;45603;-66
2021/12/10 11:34:53;;;;;;;;;1.00;1.00;;;;;10.01;60.34;99402.81;5015779;28;45299;-67
2021/12/10 11:37:38;;;;;;;;;2.50;0.00;;;;;9.99;60.16;99404.72;5015401;28;45658;-67
2021/12/10 11:40:07;;;;;;;;;0.00;0.00;;;;;10.00;60.29;99406.41;5016870;28;45461;-68
2021/12/10 11:42:47;;;;;;;;;3.25;2.25;;;;;9.94;60.36;99404.09;5013147;28;46156;-70
2021/12/10 11:45:50;;;;;;;;;1.00;1.00;;;;;10.02;59.87;99420.56;5012060;28;45463;-67
2021/12/10 11:48:26;;;;;;;;;0.75;0.25;;;;;10.00;59.44;99405.56;5023310;28;46798;-67
2021/12/10 11:51:29;;;;;;;;;2.00;0.25;;;;;10.00;59.78;99427.75;5026364;28;45568;-68
2021/12/10 11:54:03;;;;;;;;;0.50;0.25;;;;;10.02;59.64;99439.22;5015034;28;45492;-67
2021/12/10 11:56:38;;;;;;;;;2.50;1.00;;;;;10.02;59.58;99427.66;5018467;28;45603;-68
2021/12/10 11:59:12;;;;;;;;;1.00;1.00;;;;;10.04;59.24;99438.25;5022783;28;45370;-68